Time;durP1;ratioP1;P1;durP2;ratioP2;P2;SDS_P1;SDS_P2;PMS_P1;PMS_P2;Temp;Humidity;BMP_temperature;BMP_pressure;BME280_temperature;BME280_humidity;BME280_pressure;Samples;Min_cycle;Max_cycle;Signal;HPM_P1;HPM_P2
2022/03/27 00:03:01;;;;;;;51.15;26.02;;;;;;;10.50;45.78;101608.91;5192314;23;20097;-86
2022/03/27 00:15:04;;;;;;;51.90;25.93;;;;;;;10.28;47.19;101591.38;5317559;23;20051;-86
2022/03/27 00:17:54;;;;;;;57.97;25.75;;;;;;;10.34;46.75;101600.63;4995385;28;20045;-89
2022/03/27 00:20:25;;;;;;;51.67;25.02;;;;;;;10.44;46.37;101590.06;4988198;28;20043;-89
2022/03/27 00:22:51;;;;;;;51.22;25.98;;;;;;;10.28;46.66;101590.53;4997373;23;20015;-88
2022/03/27 00:25:23;;;;;;;48.25;25.45;;;;;;;10.31;46.65;101593.75;4976931;28;20050;-86
2022/03/27 00:28:32;;;;;;;56.20;26.92;;;;;;;10.13;47.08;101594.50;4995333;28;20049;-88
2022/03/27 00:31:26;;;;;;;45.38;24.20;;;;;;;10.07;47.66;101589.75;4954805;28;20039;-87
2022/03/27 00:34:04;;;;;;;50.90;24.30;;;;;;;10.05;47.59;101596.97;4968298;28;20053;-87
2022/03/27 00:36:30;;;;;;;47.67;24.17;;;;;;;10.39;46.73;101582.50;4955149;23;20024;-85
2022/03/27 00:41:40;;;;;;;40.75;22.27;;;;;;;10.54;46.06;101582.97;4826692;26;20047;-85
2022/03/27 00:44:21;;;;;;;46.28;23.35;;;;;;;10.71;45.56;101580.47;4974939;28;20031;-87
2022/03/27 00:46:53;;;;;;;47.63;23.70;;;;;;;10.90;44.87;101591.09;4993700;28;20038;-87
2022/03/27 00:49:28;;;;;;;43.10;23.00;;;;;;;10.98;44.72;101582.47;4977872;28;20128;-86
2022/03/27 00:52:18;;;;;;;40.78;22.33;;;;;;;10.84;45.08;101586.34;4990745;28;20046;-87
2022/03/27 01:01:26;;;;;;;43.35;22.42;;;;;;;10.43;46.53;101581.28;5143759;23;20090;-85
2022/03/27 01:03:57;;;;;;;46.20;23.52;;;;;;;10.33;46.58;101588.34;4975635;28;20039;-88
2022/03/27 01:06:29;;;;;;;42.63;23.00;;;;;;;10.60;46.00;101572.66;4990266;28;20042;-88
2022/03/27 01:11:33;;;;;;;46.75;23.08;;;;;;;10.69;45.54;101577.13;4988624;28;20062;-86
2022/03/27 01:13:58;;;;;;;50.88;23.60;;;;;;;10.64;45.53;101570.59;4998159;28;20083;-87
2022/03/27 01:16:56;;;;;;;52.67;25.00;;;;;;;10.52;45.65;101579.59;4964148;28;20007;-88
2022/03/27 01:19:31;;;;;;;50.78;23.70;;;;;;;10.59;45.34;101570.13;4993875;28;20023;-85
2022/03/27 01:22:54;;;;;;;47.88;24.52;;;;;;;10.72;44.89;101571.56;5091583;23;20220;-89
2022/03/27 01:26:23;;;;;;;47.45;24.20;;;;;;;10.83;44.67;101563.50;5147515;23;20042;-88
2022/03/27 01:29:05;;;;;;;45.50;23.10;;;;;;;10.72;44.51;101568.06;4980982;28;20054;-87
2022/03/27 01:31:44;;;;;;;46.45;23.23;;;;;;;10.94;44.20;101554.53;4991740;28;20030;-87
2022/03/27 01:34:12;;;;;;;49.95;24.60;;;;;;;10.92;44.06;101559.16;4978299;28;20179;-87
2022/03/27 01:36:50;;;;;;;45.88;22.23;;;;;;;10.97;43.97;101562.22;4975449;28;20019;-86
2022/03/27 01:39:18;;;;;;;45.38;23.58;;;;;;;11.00;44.06;101564.63;4993086;28;20023;-87
2022/03/27 01:42:12;;;;;;;43.80;21.88;;;;;;;10.98;44.01;101563.91;4990536;28;20047;-88
2022/03/27 01:44:41;;;;;;;46.67;22.92;;;;;;;11.07;43.84;101562.25;4959154;28;20041;-86
2022/03/27 01:47:16;;;;;;;46.15;22.92;;;;;;;10.75;44.77;101565.97;4974824;28;20062;-87
2022/03/27 01:49:45;;;;;;;44.00;23.25;;;;;;;10.28;45.93;101562.25;4994058;28;20478;-85
2022/03/27 01:52:18;;;;;;;44.13;23.38;;;;;;;10.34;45.89;101560.88;5163127;23;20058;-85
2022/03/27 01:55:21;;;;;;;43.08;22.98;;;;;;;10.02;47.07;101562.81;4987484;28;20051;-87
2022/03/27 02:00:54;;;;;;;45.72;22.92;;;;;;;10.35;45.98;101557.25;4130929;26;20065;-86
2022/03/27 02:03:35;;;;;;;50.88;23.83;;;;;;;10.45;45.27;101552.81;4996309;28;20102;-87
2022/03/27 02:06:12;;;;;;;50.38;24.88;;;;;;;10.37;45.63;101560.63;4989955;28;20135;-86
2022/03/27 02:08:54;;;;;;;47.92;24.58;;;;;;;10.03;46.38;101573.28;4991628;28;20026;-86
2022/03/27 02:11:23;;;;;;;46.45;23.75;;;;;;;9.80;47.18;101567.31;4995305;28;20049;-87
2022/03/27 02:13:55;;;;;;;47.80;23.95;;;;;;;9.70;47.55;101569.09;4993145;28;20015;-87
2022/03/27 02:16:34;;;;;;;53.15;24.48;;;;;;;9.97;46.80;101562.38;4994229;28;20030;-86
2022/03/27 02:19:22;;;;;;;45.33;23.15;;;;;;;10.29;45.93;101563.94;4991995;28;20031;-86
2022/03/27 02:22:19;;;;;;;49.13;24.83;;;;;;;9.99;46.86;101571.03;5119617;23;20090;-88
2022/03/27 02:24:48;;;;;;;50.00;22.95;;;;;;;9.91;46.88;101576.97;4926558;29;20052;-87
2022/03/27 02:27:20;;;;;;;49.08;24.65;;;;;;;9.80;46.94;101575.25;4928773;29;20483;-87
2022/03/27 02:29:54;;;;;;;49.42;24.75;;;;;;;9.62;47.34;101562.75;4915475;29;20048;-87
2022/03/27 02:32:19;;;;;;;50.72;25.05;;;;;;;9.57;47.62;101568.44;4918630;29;20072;-86
2022/03/27 02:34:45;;;;;;;51.60;24.60;;;;;;;9.77;46.98;101570.25;4910690;29;20056;-88
2022/03/27 02:37:13;;;;;;;49.42;24.10;;;;;;;9.91;46.38;101565.56;4929010;29;20052;-85
2022/03/27 02:40:08;;;;;;;48.08;25.45;;;;;;;10.19;45.45;101576.31;4903448;29;20052;-89
2022/03/27 02:43:48;;;;;;;44.58;23.23;;;;;;;10.38;44.57;101572.88;5071257;23;20101;-89
2022/03/27 02:46:21;;;;;;;44.75;22.55;;;;;;;10.31;44.85;101575.22;4995317;28;20118;-89
2022/03/27 02:48:50;;;;;;;36.47;17.25;;;;;;;10.18;45.21;101581.72;5126736;23;20058;-86
2022/03/27 02:54:27;;;;;;;47.78;24.70;;;;;;;9.86;46.49;101587.97;2989959;23;20021;-85
2022/03/27 02:57:18;;;;;;;47.97;24.35;;;;;;;10.05;46.68;101579.28;4996063;28;20039;-88
2022/03/27 02:59:44;;;;;;;47.35;24.75;;;;;;;9.77;47.48;101594.06;5048310;23;20060;-87
2022/03/27 03:02:13;;;;;;;45.67;24.85;;;;;;;9.81;47.15;101595.47;4993094;28;20039;-88
2022/03/27 03:05:20;;;;;;;48.30;23.73;;;;;;;9.85;47.27;101594.22;5086298;23;20073;-88
2022/03/27 03:10:40;;;;;;;50.43;23.57;;;;;;;9.66;47.33;101586.19;4667884;23;20017;-89
2022/03/27 03:13:35;;;;;;;47.80;23.92;;;;;;;9.73;47.34;101590.00;5001340;23;20055;-85
2022/03/27 03:16:08;;;;;;;46.70;23.30;;;;;;;9.70;47.54;101587.59;4974551;28;20471;-87
2022/03/27 03:18:35;;;;;;;47.78;23.95;;;;;;;9.66;47.34;101588.84;4991735;28;20094;-85
2022/03/27 03:21:04;;;;;;;46.63;22.90;;;;;;;9.80;46.99;101588.50;4975820;28;20022;-87
2022/03/27 03:23:32;;;;;;;44.22;23.10;;;;;;;9.98;46.68;101593.16;4990536;28;20035;-87
2022/03/27 03:26:05;;;;;;;41.90;22.83;;;;;;;9.83;47.41;101593.53;4972139;28;20050;-87
2022/03/27 03:28:31;;;;;;;45.35;23.17;;;;;;;9.70;47.88;101587.59;4993035;28;20074;-86
2022/03/27 03:31:19;;;;;;;43.65;21.75;;;;;;;9.72;47.61;101584.81;4992323;28;20034;-86
2022/03/27 03:36:29;;;;;;;47.03;23.30;;;;;;;9.40;48.78;101584.91;4878010;23;20094;-86
2022/03/27 03:39:39;;;;;;;44.75;22.23;;;;;;;9.30;49.13;101584.84;5130750;23;20049;-87
2022/03/27 03:42:36;;;;;;;45.53;22.30;;;;;;;9.49;48.96;101592.06;4918135;29;20045;-86
2022/03/27 03:45:50;;;;;;;46.20;23.75;;;;;;;9.63;48.17;101598.84;4919195;29;20025;-89
2022/03/27 03:48:29;;;;;;;48.05;23.42;;;;;;;9.40;48.82;101599.94;4912328;29;20041;-85
2022/03/27 03:53:46;;;;;;;44.40;23.23;;;;;;;9.29;49.29;101599.00;5165865;23;20043;-87
2022/03/27 03:56:27;;;;;;;49.83;22.60;;;;;;;9.20;49.57;101598.94;4975367;28;20066;-85
2022/03/27 03:59:01;;;;;;;49.67;23.45;;;;;;;9.30;49.28;101597.22;4990518;28;20043;-88
2022/03/27 04:01:26;;;;;;;47.58;24.17;;;;;;;9.34;49.28;101602.13;4958404;28;20023;-88
2022/03/27 04:03:52;;;;;;;49.08;23.70;;;;;;;9.29;49.60;101599.00;4987588;28;20069;-87
2022/03/27 04:06:23;;;;;;;42.35;22.25;;;;;;;9.40;49.55;101605.22;4990619;28;20026;-87
2022/03/27 04:11:51;;;;;;;50.10;22.45;;;;;;;9.13;50.14;101600.41;4496118;26;20130;-88
2022/03/27 04:17:09;;;;;;;49.88;24.65;;;;;;;9.24;50.13;101603.03;4989449;28;20066;-86
2022/03/27 04:19:51;;;;;;;54.15;25.08;;;;;;;9.28;49.59;101601.78;4975586;28;20054;-85
2022/03/27 04:22:31;;;;;;;52.58;24.45;;;;;;;9.55;49.03;101602.13;4995984;28;20123;-85
2022/03/27 04:24:57;;;;;;;57.77;25.53;;;;;;;9.66;48.53;101595.94;5095328;23;20047;-82
2022/03/27 04:27:29;;;;;;;52.38;25.65;;;;;;;9.58;48.76;101599.22;4978787;28;20039;-87
2022/03/27 04:29:55;;;;;;;54.13;24.92;;;;;;;9.53;48.98;101601.41;4960568;28;20062;-84
2022/03/27 04:32:31;;;;;;;54.88;24.85;;;;;;;9.69;48.35;101601.81;4989658;23;20054;-84
2022/03/27 04:35:32;;;;;;;49.58;24.92;;;;;;;9.69;48.51;101596.50;4964935;28;20043;-84
2022/03/27 04:38:07;;;;;;;51.45;24.90;;;;;;;9.89;48.10;101602.75;4991028;28;20053;-87
2022/03/27 04:40:37;;;;;;;50.35;25.70;;;;;;;9.88;47.99;101611.66;5104341;23;20043;-85
2022/03/27 04:46:10;;;;;;;51.08;26.00;;;;;;;10.00;47.69;101613.28;5429135;23;20118;-84
2022/03/27 04:48:37;;;;;;;52.45;25.73;;;;;;;9.83;47.84;101611.22;4982240;28;20074;-89
2022/03/27 04:51:10;;;;;;;56.88;26.40;;;;;;;9.69;48.51;101622.97;4968142;28;20043;-87
2022/03/27 04:54:02;;;;;;;60.30;25.42;;;;;;;9.67;48.73;101614.34;4969791;28;20034;-85
2022/03/27 05:05:01;;;;;;;62.37;26.67;;;;;;;9.34;50.39;101614.53;3231931;26;20353;-82
2022/03/27 05:07:26;;;;;;;60.03;28.00;;;;;;;9.32;50.59;101619.06;5012614;28;20049;-82
2022/03/27 05:09:53;;;;;;;61.03;27.33;;;;;;;9.30;50.50;101610.44;4994960;28;20039;-84
2022/03/27 05:12:21;;;;;;;59.83;26.98;;;;;;;9.31;50.38;101615.59;5019589;28;20041;-85
2022/03/27 05:14:56;;;;;;;57.67;25.95;;;;;;;9.39;49.96;101607.03;5016888;28;20066;-85
2022/03/27 05:17:59;;;;;;;49.65;24.95;;;;;;;9.50;49.07;101616.72;5020406;28;20034;-84
2022/03/27 05:24:23;;;;;;;51.35;23.20;;;;;;;9.96;48.02;101630.38;5016319;28;20076;-83
2022/03/27 05:26:49;;;;;;;52.25;25.30;;;;;;;10.18;47.00;101635.53;4999546;28;20093;-80
2022/03/27 05:29:15;;;;;;;50.75;24.02;;;;;;;10.41;46.71;101622.94;5000381;28;20030;-83
2022/03/27 05:31:40;;;;;;;53.33;25.10;;;;;;;10.18;46.52;101632.06;4999749;28;20062;-83
2022/03/27 05:34:06;;;;;;;50.05;23.67;;;;;;;10.35;46.45;101636.72;5000131;28;20037;-83
2022/03/27 05:36:31;;;;;;;50.60;24.08;;;;;;;10.38;46.30;101626.72;4984313;28;20085;-85
2022/03/27 05:38:57;;;;;;;45.70;25.05;;;;;;;10.11;46.74;101633.56;5003852;28;20543;-86
2022/03/27 05:41:23;;;;;;;53.50;23.88;;;;;;;9.75;47.72;101634.84;4991217;28;20039;-82
2022/03/27 05:43:49;;;;;;;46.35;23.92;;;;;;;9.67;48.01;101645.25;5015901;28;20034;-81
2022/03/27 05:46:15;;;;;;;49.80;23.75;;;;;;;9.91;47.90;101642.34;5015372;28;20046;-80
2022/03/27 05:48:44;;;;;;;42.72;23.05;;;;;;;9.96;47.75;101646.28;5001543;28;20034;-91
2022/03/27 05:51:09;;;;;;;50.13;24.83;;;;;;;10.16;46.89;101647.25;5000605;28;20549;-83
2022/03/27 05:53:35;;;;;;;44.25;24.20;;;;;;;10.23;47.17;101646.59;5000372;28;20117;-85
2022/03/27 05:56:01;;;;;;;47.50;23.30;;;;;;;10.43;46.46;101650.16;4983090;28;20046;-85
2022/03/27 05:58:27;;;;;;;51.08;23.90;;;;;;;10.26;46.92;101654.28;4999548;28;20100;-84
2022/03/27 06:00:53;;;;;;;49.63;23.58;;;;;;;10.28;46.94;101659.44;4999233;28;20438;-89
2022/03/27 06:03:19;;;;;;;49.08;24.15;;;;;;;10.39;46.73;101659.34;4992144;28;20124;-84
2022/03/27 06:05:44;;;;;;;47.25;23.98;;;;;;;10.29;47.31;101666.41;4998060;28;20034;-82
2022/03/27 06:08:10;;;;;;;48.08;23.88;;;;;;;10.50;46.52;101669.88;4994313;28;20027;-87
2022/03/27 06:10:38;;;;;;;46.35;24.92;;;;;;;10.31;46.70;101672.41;4998034;28;20037;-83
2022/03/27 06:13:04;;;;;;;49.42;23.13;;;;;;;10.20;47.11;101677.81;4998357;28;20478;-84
2022/03/27 06:15:31;;;;;;;54.00;25.00;;;;;;;10.22;46.90;101684.66;4997743;28;20038;-84
2022/03/27 06:17:58;;;;;;;55.90;23.98;;;;;;;9.96;47.68;101683.34;4998484;28;20117;-89
2022/03/27 06:20:29;;;;;;;46.47;24.92;;;;;;;10.08;47.51;101681.47;4996940;28;20031;-83
2022/03/27 06:22:55;;;;;;;46.90;24.73;;;;;;;10.26;47.43;101690.53;4998742;28;20030;-86
2022/03/27 06:25:24;;;;;;;49.38;23.45;;;;;;;10.23;48.15;101690.78;4962100;28;20081;-84
2022/03/27 06:27:50;;;;;;;49.92;23.75;;;;;;;10.04;48.95;101688.00;4979931;28;20086;-86
2022/03/27 06:30:18;;;;;;;50.40;25.77;;;;;;;10.05;49.40;101692.31;4961576;28;20031;-85
2022/03/27 06:32:50;;;;;;;49.92;25.15;;;;;;;10.20;49.01;101696.34;4978456;28;20034;-85
2022/03/27 06:35:16;;;;;;;36.55;18.50;;;;;;;10.27;49.20;101694.88;4981024;28;20046;-83
2022/03/27 06:37:43;;;;;;;51.97;25.17;;;;;;;10.49;48.81;101694.69;4973922;28;20035;-85
2022/03/27 06:40:10;;;;;;;50.78;24.88;;;;;;;10.56;48.48;101698.50;5020069;28;20038;-82
2022/03/27 06:42:37;;;;;;;53.67;25.15;;;;;;;10.94;48.01;101696.94;5018168;28;20033;-85
2022/03/27 06:45:04;;;;;;;61.45;29.73;;;;;;;11.24;46.18;101702.16;4981365;28;20470;-82
2022/03/27 06:47:29;;;;;;;58.03;28.77;;;;;;;11.34;45.87;101695.88;4982551;28;20110;-89
2022/03/27 06:49:56;;;;;;;66.43;32.05;;;;;;;11.14;46.32;101703.94;4996233;28;20057;-87
2022/03/27 06:52:23;;;;;;;74.57;33.33;;;;;;;10.99;45.50;101700.03;4990689;28;20438;-82
2022/03/27 06:54:50;;;;;;;74.15;34.67;;;;;;;10.93;45.44;101705.88;4964351;28;20430;-84
2022/03/27 06:57:16;;;;;;;78.85;37.58;;;;;;;10.89;45.66;101703.50;4997861;28;20042;-85
2022/03/27 07:05:12;;;;;;;71.47;36.63;;;;;;;11.07;45.94;101710.81;4979598;28;20445;-85
2022/03/27 07:07:38;;;;;;;78.65;37.55;;;;;;;11.14;45.51;101715.41;4961916;28;20046;-85
2022/03/27 07:10:04;;;;;;;75.30;35.95;;;;;;;11.18;45.92;101711.50;4987523;28;20413;-88
2022/03/27 07:12:30;;;;;;;74.93;38.97;;;;;;;11.17;46.23;101719.63;4994588;28;20030;-84
2022/03/27 07:14:55;;;;;;;79.43;39.22;;;;;;;11.93;44.76;101723.31;4981584;28;20042;-84
2022/03/27 07:17:21;;;;;;;80.00;40.53;;;;;;;12.23;43.83;101723.94;4996078;28;20040;-86
2022/03/27 07:19:47;;;;;;;79.25;40.60;;;;;;;12.97;42.34;101729.28;4998108;28;20034;-89
2022/03/27 07:22:14;;;;;;;77.03;39.33;;;;;;;12.96;42.48;101731.09;4997557;28;20565;-85
2022/03/27 07:24:41;;;;;;;88.13;40.80;;;;;;;13.31;41.62;101735.69;4994703;28;20042;-88
2022/03/27 07:27:11;;;;;;;80.47;40.65;;;;;;;13.55;41.17;101726.28;4991596;28;20090;-83
2022/03/27 07:29:43;;;;;;;80.60;40.40;;;;;;;13.57;41.66;101730.47;4990971;28;20035;-87
2022/03/27 07:32:11;;;;;;;87.30;43.73;;;;;;;13.90;40.70;101734.25;4997438;28;20068;-86
2022/03/27 07:34:37;;;;;;;78.60;43.88;;;;;;;13.57;41.34;101734.94;4985985;28;20043;-86
2022/03/27 07:37:16;;;;;;;82.60;43.13;;;;;;;13.20;42.52;101743.03;4992213;28;20038;-86
2022/03/27 07:39:45;;;;;;;84.88;42.75;;;;;;;13.09;42.72;101744.09;4981600;28;20059;-87
2022/03/27 07:42:10;;;;;;;90.47;42.63;;;;;;;12.77;43.20;101741.84;4976784;28;20030;-87
2022/03/27 07:44:36;;;;;;;82.72;43.15;;;;;;;12.78;43.30;101740.03;4991251;28;20102;-87
2022/03/27 07:47:03;;;;;;;90.43;41.45;;;;;;;13.05;42.99;101739.19;4998723;28;20094;-86
2022/03/27 07:49:28;;;;;;;85.75;42.28;;;;;;;13.51;41.67;101733.75;4965013;28;20585;-81
2022/03/27 07:51:54;;;;;;;89.70;43.72;;;;;;;13.43;41.61;101745.13;4993761;28;20022;-87
2022/03/27 07:54:21;;;;;;;87.70;44.33;;;;;;;13.50;41.74;101740.03;4969801;28;20038;-88
2022/03/27 07:56:46;;;;;;;85.65;43.22;;;;;;;13.42;42.07;101747.97;4995261;28;20041;-86
2022/03/27 07:59:12;;;;;;;87.15;44.03;;;;;;;13.64;41.04;101741.34;4997539;28;20034;-83
2022/03/27 08:01:41;;;;;;;86.25;44.25;;;;;;;13.65;41.43;101738.56;4987065;28;20043;-86
2022/03/27 08:04:08;;;;;;;90.80;45.58;;;;;;;14.07;40.26;101745.88;4988489;28;20066;-86
2022/03/27 08:06:36;;;;;;;83.88;42.85;;;;;;;14.24;40.02;101745.84;4971791;28;20101;-85
2022/03/27 08:09:06;;;;;;;81.15;43.55;;;;;;;14.64;39.67;101753.31;4988870;28;20421;-83
2022/03/27 08:11:32;;;;;;;94.68;45.40;;;;;;;15.01;39.22;101753.81;4963746;28;20449;-83
2022/03/27 08:13:57;;;;;;;89.20;45.45;;;;;;;15.36;39.07;101757.28;4996465;28;20106;-84
2022/03/27 08:16:23;;;;;;;82.55;42.65;;;;;;;15.64;38.34;101742.69;4995153;28;20070;-89
2022/03/27 08:18:51;;;;;;;83.78;44.90;;;;;;;15.98;38.27;101740.66;4985367;28;20041;-88
2022/03/27 08:21:17;;;;;;;80.63;44.38;;;;;;;16.56;37.26;101741.47;4986641;28;20038;-91
2022/03/27 08:23:46;;;;;;;84.18;46.47;;;;;;;16.57;36.46;101743.97;4978537;28;20045;-89
2022/03/27 08:29:03;;;;;;;87.97;48.28;;;;;;;16.43;36.95;101741.97;4978332;28;20486;-89
2022/03/27 08:31:32;;;;;;;81.63;45.55;;;;;;;16.68;37.09;101748.13;4964241;28;20521;-89
2022/03/27 08:34:01;;;;;;;82.73;42.43;;;;;;;16.88;37.02;101747.53;4976711;28;20070;-91
2022/03/27 08:36:30;;;;;;;95.07;44.10;;;;;;;16.64;36.71;101752.97;4983290;28;20035;-90
2022/03/27 08:38:59;;;;;;;84.85;44.00;;;;;;;16.57;37.29;101752.00;4982803;28;20069;-91
2022/03/27 08:41:26;;;;;;;87.03;44.95;;;;;;;16.60;37.04;101748.16;4974397;28;20058;-91
2022/03/27 08:43:58;;;;;;;81.65;44.83;;;;;;;16.73;36.86;101753.81;4980290;28;20039;-91
2022/03/27 08:46:39;;;;;;;79.47;44.63;;;;;;;16.73;36.31;101757.31;4984774;28;20061;-90
2022/03/27 08:49:38;;;;;;;83.78;45.70;;;;;;;16.91;36.11;101755.22;4956223;28;20107;-91
2022/03/27 08:52:10;;;;;;;86.82;43.42;;;;;;;17.50;36.68;101755.59;4985982;28;20082;-92
2022/03/27 08:54:42;;;;;;;81.10;44.38;;;;;;;17.43;35.80;101765.38;4994210;28;20055;-88
2022/03/27 08:57:14;;;;;;;84.63;44.10;;;;;;;17.84;35.58;101774.84;4995836;28;20077;-88
2022/03/27 08:59:41;;;;;;;74.20;41.75;;;;;;;18.35;35.77;101767.88;4994053;28;20034;-90
2022/03/27 09:02:07;;;;;;;80.03;40.97;;;;;;;17.74;36.34;101768.88;4976047;28;20034;-90
2022/03/27 09:04:53;;;;;;;76.78;40.50;;;;;;;18.13;35.41;101767.94;4978976;28;20121;-91
2022/03/27 09:07:23;;;;;;;77.63;43.08;;;;;;;18.63;35.60;101770.00;4955507;28;20054;-87
2022/03/27 09:09:50;;;;;;;84.90;41.00;;;;;;;18.78;33.62;101774.34;4978390;28;20047;-89
2022/03/27 09:12:19;;;;;;;73.32;40.28;;;;;;;18.58;32.97;101773.22;4973850;28;20035;-86
2022/03/27 09:14:45;;;;;;;80.03;38.78;;;;;;;18.97;33.15;101773.78;4983133;28;20049;-85
2022/03/27 09:17:12;;;;;;;74.78;39.88;;;;;;;19.00;32.41;101776.09;4983380;28;20039;-83
2022/03/27 09:19:43;;;;;;;73.40;38.58;;;;;;;18.81;32.06;101770.44;4992679;28;20155;-85
2022/03/27 09:22:14;;;;;;;69.70;37.97;;;;;;;19.24;31.98;101777.63;4974161;28;20018;-82
2022/03/27 09:24:40;;;;;;;74.35;39.33;;;;;;;19.13;32.09;101770.03;4987930;28;20031;-81
2022/03/27 09:27:06;;;;;;;71.13;38.08;;;;;;;19.61;32.14;101776.66;4973328;28;20110;-85
2022/03/27 09:29:55;;;;;;;77.70;39.22;;;;;;;20.56;30.37;101782.47;4980400;28;20026;-86
2022/03/27 09:32:28;;;;;;;78.95;40.03;;;;;;;20.11;30.47;101768.47;4989015;28;20022;-84
2022/03/27 09:35:08;;;;;;;82.38;40.42;;;;;;;19.96;31.26;101770.38;4986999;28;20037;-83
2022/03/27 09:37:48;;;;;;;74.30;38.85;;;;;;;20.66;30.86;101771.34;4985523;28;20034;-87
2022/03/27 09:40:19;;;;;;;83.30;41.97;;;;;;;21.05;29.65;101783.19;4995427;28;20083;-85
2022/03/27 09:42:47;;;;;;;78.60;41.87;;;;;;;20.93;29.41;101774.00;4978865;28;20210;-90
2022/03/27 09:45:26;;;;;;;72.78;40.90;;;;;;;20.56;30.33;101771.72;4995916;28;20384;-83
2022/03/27 09:47:53;;;;;;;76.80;39.17;;;;;;;20.58;29.91;101769.66;4983059;28;20035;-84
2022/03/27 09:50:39;;;;;;;72.78;39.50;;;;;;;20.02;30.59;101766.91;4983601;28;20030;-85
2022/03/27 09:53:28;;;;;;;77.57;40.25;;;;;;;20.11;30.88;101763.06;4957905;28;20062;-87
2022/03/27 09:56:15;;;;;;;81.75;42.30;;;;;;;19.66;31.41;101779.59;4976790;28;20482;-86
2022/03/27 09:58:44;;;;;;;72.63;39.25;;;;;;;19.49;32.38;101773.59;4980520;28;20134;-90
2022/03/27 10:01:26;;;;;;;75.22;39.47;;;;;;;19.88;32.04;101759.75;4972091;28;20090;-88
2022/03/27 10:04:08;;;;;;;72.82;39.42;;;;;;;20.43;31.19;101766.22;4967317;28;20073;-86
2022/03/27 10:06:38;;;;;;;82.30;42.78;;;;;;;19.99;32.00;101764.59;4987015;28;20047;-88
2022/03/27 10:09:08;;;;;;;75.72;39.55;;;;;;;20.45;31.57;101764.19;4989799;28;20023;-85
2022/03/27 10:11:34;;;;;;;80.93;41.55;;;;;;;20.84;30.30;101758.22;4968438;28;20038;-86
2022/03/27 10:14:03;;;;;;;75.43;40.65;;;;;;;21.49;28.97;101757.66;4990066;28;20043;-84
2022/03/27 10:16:37;;;;;;;75.18;40.20;;;;;;;21.92;28.62;101769.00;4987461;28;20124;-86
2022/03/27 10:19:06;;;;;;;73.97;38.88;;;;;;;22.34;28.78;101756.97;4982678;28;20118;-91
2022/03/27 10:21:38;;;;;;;70.57;38.00;;;;;;;23.08;27.51;101760.97;4967529;28;20057;-90
2022/03/27 10:24:15;;;;;;;68.35;38.45;;;;;;;23.29;27.01;101759.00;4980553;28;20043;-89
2022/03/27 10:26:44;;;;;;;70.53;38.95;;;;;;;23.58;26.98;101755.75;4981679;28;20053;-90
2022/03/27 10:29:13;;;;;;;71.38;38.42;;;;;;;23.07;27.57;101759.28;4978885;28;20042;-83
2022/03/27 10:31:42;;;;;;;80.07;40.33;;;;;;;22.59;28.12;101761.50;4975478;28;20035;-85
2022/03/27 10:34:11;;;;;;;77.72;39.78;;;;;;;22.17;27.45;101755.72;4983048;28;20031;-82
2022/03/27 10:36:59;;;;;;;65.07;37.03;;;;;;;22.17;27.45;101751.97;4980429;28;20089;-82
2022/03/27 10:40:00;;;;;;;86.75;48.90;;;;;;;22.37;27.39;101741.13;4981025;28;20054;-87
2022/03/27 10:42:32;;;;;;;69.57;37.50;;;;;;;22.46;27.10;101750.72;4945041;28;20089;-89
2022/03/27 10:45:16;;;;;;;74.60;38.33;;;;;;;22.40;28.02;101745.31;4980126;28;20031;-88
2022/03/27 10:47:42;;;;;;;72.80;39.80;;;;;;;22.25;27.61;101734.72;4958269;28;20134;-88
2022/03/27 10:50:08;;;;;;;77.47;39.60;;;;;;;22.01;27.83;101738.88;4980409;28;20450;-86
2022/03/27 10:52:36;;;;;;;66.68;37.08;;;;;;;21.94;27.51;101740.75;4978086;28;20106;-87
2022/03/27 10:55:12;;;;;;;65.07;38.33;;;;;;;21.89;27.18;101734.28;4978785;28;20035;-84
2022/03/27 10:57:41;;;;;;;88.45;40.65;;;;;;;21.69;27.33;101728.88;4978549;28;20043;-82
2022/03/27 11:00:10;;;;;;;69.50;37.28;;;;;;;21.63;27.25;101727.00;4978968;28;20479;-81
2022/03/27 11:02:53;;;;;;;68.72;37.90;;;;;;;21.40;28.04;101726.53;4965677;28;20480;-83
2022/03/27 11:05:41;;;;;;;80.53;36.78;;;;;;;21.20;28.50;101729.16;4961206;29;20116;-82
2022/03/27 11:08:16;;;;;;;71.00;36.55;;;;;;;21.81;27.80;101729.91;4967444;28;20415;-87
2022/03/27 11:10:51;;;;;;;66.18;37.50;;;;;;;22.38;27.40;101731.16;4961773;29;20447;-84
2022/03/27 11:13:26;;;;;;;65.22;38.35;;;;;;;22.19;27.26;101715.81;4964455;29;20043;-83
2022/03/27 11:18:43;;;;;;;62.05;34.80;;;;;;;21.11;26.83;101715.00;4978060;26;20047;-84
2022/03/27 11:21:10;;;;;;;;;;;;;;;21.10;28.18;101713.38;4969864;28;20027;-86
2022/03/27 11:23:38;;;;;;;67.35;35.63;;;;;;;21.41;27.15;101718.22;4969760;28;19996;-86
2022/03/27 11:26:20;;;;;;;64.15;36.28;;;;;;;20.94;27.94;101710.16;4981581;28;20035;-90
2022/03/27 11:28:52;;;;;;;65.22;37.30;;;;;;;20.89;29.94;101697.28;4946274;28;20046;-84
2022/03/27 11:31:26;;;;;;;64.90;37.33;;;;;;;20.44;27.44;101708.66;4977074;28;20074;-86
2022/03/27 11:34:04;;;;;;;64.30;36.10;;;;;;;20.56;27.82;101707.06;4974001;28;20045;-84
2022/03/27 11:36:34;;;;;;;64.57;37.22;;;;;;;20.93;27.82;101703.94;4977819;28;20106;-79
2022/03/27 11:39:07;;;;;;;66.22;39.13;;;;;;;21.19;27.77;101700.53;4967631;28;20043;-82
2022/03/27 11:41:43;;;;;;;70.40;39.95;;;;;;;21.17;27.78;101693.69;4972820;28;20086;-84
2022/03/27 11:45:06;;;;;;;70.00;38.05;;;;;;;21.44;27.81;101690.03;4977695;28;20181;-84
2022/03/27 11:47:11;;;;;;;62.38;33.15;;;;;;;20.88;26.56;101695.59;4952785;28;20035;-84
2022/03/27 11:49:40;;;;;;;57.63;33.42;;;;;;;20.83;25.71;101687.31;4978457;28;20078;-81
2022/03/27 11:52:08;;;;;;;65.82;37.53;;;;;;;20.90;27.10;101685.47;4956316;28;20510;-85
2022/03/27 11:54:35;;;;;;;67.45;37.80;;;;;;;20.80;27.69;101687.72;4976922;28;20058;-85
2022/03/27 11:57:11;;;;;;;58.90;32.05;;;;;;;20.99;25.72;101681.56;4958965;28;20122;-84
2022/03/27 11:59:48;;;;;;;65.13;33.05;;;;;;;20.47;25.91;101681.31;4975431;28;20073;-81
2022/03/27 12:02:15;;;;;;;65.60;33.78;;;;;;;19.96;28.07;101678.88;4972813;28;20053;-82
2022/03/27 12:04:56;;;;;;;55.15;30.63;;;;;;;19.53;25.61;101678.09;4953954;28;20057;-81
2022/03/27 12:07:23;;;;;;;54.50;27.63;;;;;;;19.48;25.00;101671.63;4962128;28;20034;-79
2022/03/27 12:10:02;;;;;;;53.70;28.30;;;;;;;19.67;25.59;101672.84;4990094;28;20443;-80
2022/03/27 12:12:32;;;;;;;56.33;31.02;;;;;;;19.57;26.03;101665.94;4985948;28;20043;-85
2022/03/27 12:15:08;;;;;;;56.45;31.67;;;;;;;19.35;26.48;101669.63;4978486;28;20111;-81
2022/03/27 12:17:44;;;;;;;54.92;29.88;;;;;;;19.45;26.16;101661.28;4975762;28;20047;-81
2022/03/27 12:20:12;;;;;;;62.88;33.92;;;;;;;19.20;27.76;101668.00;4961012;28;20113;-82
2022/03/27 12:22:38;;;;;;;52.08;28.35;;;;;;;19.32;27.20;101669.16;4960789;28;20482;-86
2022/03/27 12:25:31;;;;;;;47.25;27.02;;;;;;;19.54;25.40;101662.78;4980008;28;20066;-79
2022/03/27 12:30:51;;;;;;;50.30;27.50;;;;;;;19.34;25.98;101657.19;4957450;28;20057;-87
2022/03/27 12:33:21;;;;;;;58.17;29.67;;;;;;;19.36;25.73;101649.75;4975290;28;20042;-86
2022/03/27 12:36:01;;;;;;;47.35;24.15;;;;;;;18.99;24.27;101650.81;4974999;28;20098;-84
2022/03/27 12:38:34;;;;;;;49.75;25.65;;;;;;;18.74;25.41;101644.13;4975305;28;20086;-85
2022/03/27 12:41:02;;;;;;;57.90;28.10;;;;;;;18.91;25.76;101650.94;4975456;28;20094;-81
2022/03/27 12:43:29;;;;;;;49.95;27.08;;;;;;;19.09;26.48;101643.28;4973646;28;20064;-89
2022/03/27 12:45:56;;;;;;;50.67;28.50;;;;;;;19.05;26.51;101635.81;4975865;28;20049;-86
2022/03/27 12:48:25;;;;;;;53.70;28.20;;;;;;;19.13;26.99;101635.66;4976412;28;20426;-79
2022/03/27 12:50:57;;;;;;;54.15;29.55;;;;;;;19.08;26.55;101635.44;4975207;28;20043;-80
2022/03/27 12:53:22;;;;;;;56.90;29.23;;;;;;;19.22;26.22;101636.41;4974711;28;20027;-85